Time;durP1;ratioP1;P1;durP2;ratioP2;P2;SDS_P1;SDS_P2;PMS_P1;PMS_P2;Temp;Humidity;BMP_temperature;BMP_pressure;BME280_temperature;BME280_humidity;BME280_pressure;Samples;Min_cycle;Max_cycle;Signal;HPM_P1;HPM_P2
2022/07/20 00:02:29;;;;;;;4.75;3.38;;;;;;;25.91;32.75;100279.59;10192660;29;20099;-78
2022/07/20 00:07:32;;;;;;;5.20;3.22;;;;;;;25.83;33.16;100272.47;10190402;29;20051;-76
2022/07/20 00:12:35;;;;;;;4.07;3.08;;;;;;;25.81;33.59;100282.88;10188936;29;20055;-77
2022/07/20 00:17:39;;;;;;;4.57;2.67;;;;;;;25.68;33.54;100272.03;10194608;29;20060;-77
2022/07/20 00:22:42;;;;;;;4.13;3.45;;;;;;;25.61;33.64;100273.94;10181658;29;20588;-77
2022/07/20 00:27:45;;;;;;;6.18;3.30;;;;;;;25.56;33.48;100273.78;10174389;29;20150;-77
2022/07/20 00:32:50;;;;;;;5.93;3.15;;;;;;;25.50;33.34;100277.44;10178102;29;20058;-77
2022/07/20 00:37:52;;;;;;;6.80;3.00;;;;;;;25.43;33.37;100268.44;10178865;29;20051;-77
2022/07/20 00:42:55;;;;;;;8.23;3.45;;;;;;;25.44;33.31;100272.84;10179495;29;20052;-77
2022/07/20 00:47:59;;;;;;;4.45;2.72;;;;;;;25.37;33.45;100268.25;10177997;29;20110;-78
2022/07/20 00:53:03;;;;;;;3.55;2.60;;;;;;;25.37;33.61;100264.69;10175747;29;20055;-77
2022/07/20 00:58:05;;;;;;;10.57;3.22;;;;;;;25.23;33.71;100250.19;10175905;29;20150;-78
2022/07/20 01:03:10;;;;;;;7.20;3.55;;;;;;;25.12;33.68;100250.91;10178560;29;20055;-77
2022/07/20 01:08:12;;;;;;;9.52;3.45;;;;;;;25.10;33.51;100244.81;10176726;29;20047;-77
2022/07/20 01:13:15;;;;;;;4.38;2.78;;;;;;;25.11;33.37;100243.75;10179213;29;20067;-77
2022/07/20 01:18:20;;;;;;;7.38;3.38;;;;;;;25.09;33.25;100241.19;10183342;29;20056;-76
2022/07/20 01:23:24;;;;;;;3.67;2.78;;;;;;;25.13;33.20;100247.13;10205717;29;20052;-77
2022/07/20 01:28:29;;;;;;;9.73;2.97;;;;;;;25.07;33.35;100248.84;10186406;29;20462;-78
2022/07/20 01:33:32;;;;;;;7.47;2.78;;;;;;;25.04;33.53;100246.56;10180575;29;20055;-77
2022/07/20 01:38:36;;;;;;;6.00;3.15;;;;;;;25.06;33.25;100232.56;10180898;29;20130;-78
2022/07/20 01:43:39;;;;;;;7.20;2.90;;;;;;;25.02;33.46;100234.06;10181826;29;20052;-78
2022/07/20 01:48:42;;;;;;;5.72;3.28;;;;;;;24.86;33.89;100247.28;10181351;29;20429;-78
2022/07/20 01:53:47;;;;;;;5.63;3.10;;;;;;;24.76;34.10;100235.94;10180110;29;20052;-78
2022/07/20 01:58:50;;;;;;;3.55;2.95;;;;;;;24.82;34.19;100237.81;10180554;29;21300;-78
2022/07/20 02:03:53;;;;;;;8.18;3.30;;;;;;;24.81;33.64;100235.28;10192181;29;20104;-76
2022/07/20 02:08:57;;;;;;;3.08;2.70;;;;;;;24.78;33.55;100238.47;10196258;29;20055;-78
2022/07/20 02:14:00;;;;;;;3.85;3.13;;;;;;;24.62;33.48;100229.69;10180600;29;20634;-78
2022/07/20 02:19:03;;;;;;;4.35;2.70;;;;;;;24.48;33.67;100231.66;10192813;29;20044;-76
2022/07/20 02:24:08;;;;;;;8.13;3.08;;;;;;;24.38;33.75;100223.06;10197181;29;20122;-78
2022/07/20 02:29:11;;;;;;;8.27;3.33;;;;;;;24.30;34.11;100226.06;10201264;29;20058;-77
2022/07/20 02:34:14;;;;;;;3.83;3.00;;;;;;;24.23;33.94;100217.84;10189159;29;20056;-77
2022/07/20 02:39:18;;;;;;;6.35;3.40;;;;;;;24.13;34.47;100219.34;10192315;29;20218;-78
2022/07/20 02:44:21;;;;;;;9.18;3.17;;;;;;;24.16;34.11;100227.16;10184992;29;20055;-78
2022/07/20 02:49:24;;;;;;;6.68;3.33;;;;;;;24.14;34.44;100224.63;10184768;29;21215;-77
2022/07/20 02:54:28;;;;;;;5.10;3.08;;;;;;;24.21;34.36;100238.31;10185655;29;20103;-77
2022/07/20 02:59:31;;;;;;;8.90;3.03;;;;;;;24.11;34.55;100230.56;10192152;29;20524;-77
2022/07/20 03:04:34;;;;;;;4.68;2.88;;;;;;;24.05;34.93;100237.78;10198502;29;20084;-78
2022/07/20 03:09:38;;;;;;;6.03;3.33;;;;;;;23.95;34.86;100234.63;10189880;29;20804;-78
2022/07/20 03:14:41;;;;;;;3.42;2.70;;;;;;;23.80;35.15;100236.78;10185425;29;20079;-78
2022/07/20 03:19:44;;;;;;;4.63;2.38;;;;;;;23.87;36.14;100241.19;10184888;29;20102;-77
2022/07/20 03:24:48;;;;;;;5.72;2.72;;;;;;;23.90;35.45;100234.44;10182680;29;20686;-79
2022/07/20 03:29:51;;;;;;;3.80;3.03;;;;;;;23.86;35.65;100242.25;10174788;29;20497;-78
2022/07/20 03:34:54;;;;;;;5.72;2.72;;;;;;;23.84;34.88;100244.38;10181458;29;20166;-76
2022/07/20 03:39:58;;;;;;;6.70;2.90;;;;;;;23.82;35.14;100246.47;10183500;29;20163;-79
2022/07/20 03:45:01;;;;;;;3.85;3.22;;;;;;;23.89;34.86;100249.22;10181192;29;20102;-77
2022/07/20 03:50:04;;;;;;;6.15;3.03;;;;;;;23.98;34.26;100260.78;10183764;29;20102;-78
2022/07/20 03:55:09;;;;;;;3.88;2.90;;;;;;;24.02;34.21;100260.13;10183923;29;20048;-78
2022/07/20 04:00:13;;;;;;;6.80;2.80;;;;;;;23.98;34.27;100261.63;10181928;29;20505;-78
2022/07/20 04:05:16;;;;;;;3.67;3.03;;;;;;;24.04;34.75;100257.16;10182746;29;20397;-77
2022/07/20 04:10:20;;;;;;;4.43;2.92;;;;;;;23.93;34.88;100261.44;10182220;29;20051;-77
2022/07/20 04:15:26;;;;;;;4.53;2.85;;;;;;;24.03;35.11;100266.47;10179846;29;20047;-78
2022/07/20 04:20:29;;;;;;;5.70;2.78;;;;;;;24.02;35.22;100273.00;10179549;29;20047;-78
2022/07/20 04:25:34;;;;;;;5.40;3.22;;;;;;;24.07;35.13;100270.47;10179800;29;20047;-78
2022/07/20 04:30:38;;;;;;;6.55;3.17;;;;;;;24.03;35.48;100263.72;10185314;29;20056;-78
2022/07/20 04:35:41;;;;;;;3.35;2.65;;;;;;;24.15;35.17;100261.97;10189766;29;20063;-77
2022/07/20 04:40:45;;;;;;;5.72;2.78;;;;;;;24.09;35.13;100260.94;10181185;29;20056;-78
2022/07/20 04:45:48;;;;;;;4.55;2.97;;;;;;;24.23;35.15;100258.16;10201972;29;20056;-77
2022/07/20 04:50:59;;;;;;;5.68;2.80;;;;;;;24.27;35.42;100267.63;10181388;29;20062;-78
2022/07/20 04:56:03;;;;;;;4.53;3.45;;;;;;;24.32;35.21;100265.91;10181828;29;20044;-77
2022/07/20 05:01:06;;;;;;;7.95;3.65;;;;;;;24.42;34.82;100281.97;10195333;29;20048;-77
2022/07/20 05:06:09;;;;;;;5.82;2.90;;;;;;;24.63;34.91;100274.44;10195695;28;20206;-78
2022/07/20 05:11:13;;;;;;;10.60;3.47;;;;;;;24.71;35.01;100269.56;10194308;29;20102;-78
2022/07/20 05:16:16;;;;;;;7.38;3.08;;;;;;;24.88;34.68;100269.88;10181852;29;20136;-78
2022/07/20 05:21:19;;;;;;;6.03;3.40;;;;;;;25.01;35.05;100268.09;10195345;29;20159;-78
2022/07/20 05:26:23;;;;;;;8.55;3.60;;;;;;;25.02;34.61;100278.88;10179426;29;20103;-77
2022/07/20 05:31:26;;;;;;;3.40;3.00;;;;;;;25.26;34.69;100273.63;10183835;29;20052;-77
2022/07/20 05:36:29;;;;;;;5.35;3.33;;;;;;;25.35;34.77;100289.63;10183674;29;20093;-77
2022/07/20 05:41:33;;;;;;;9.48;3.13;;;;;;;25.55;34.51;100283.13;10176493;29;20059;-78
2022/07/20 05:46:36;;;;;;;6.05;3.20;;;;;;;25.60;34.50;100288.78;10174971;29;20424;-77
2022/07/20 05:51:39;;;;;;;7.13;3.38;;;;;;;25.77;34.33;100291.81;10173824;29;20861;-77
2022/07/20 05:56:43;;;;;;;5.45;3.85;;;;;;;25.94;34.06;100294.81;10182553;29;20055;-77
2022/07/20 06:01:46;;;;;;;7.35;3.30;;;;;;;26.12;34.22;100294.00;10183638;29;20189;-77
2022/07/20 06:06:49;;;;;;;3.08;2.88;;;;;;;26.24;34.04;100300.44;10182390;29;20058;-77
2022/07/20 06:11:53;;;;;;;6.53;3.10;;;;;;;26.36;33.43;100295.00;10182604;29;20079;-77
2022/07/20 06:16:56;;;;;;;10.65;3.15;;;;;;;26.65;34.28;100287.84;10180897;29;20055;-77
2022/07/20 06:21:59;;;;;;;7.85;3.50;;;;;;;26.83;33.58;100287.00;10181554;29;20051;-78
2022/07/20 06:27:04;;;;;;;7.60;3.17;;;;;;;27.04;33.45;100291.97;10186639;29;20055;-78
2022/07/20 06:32:07;;;;;;;8.65;3.85;;;;;;;27.24;32.93;100294.41;10185519;29;20059;-78
2022/07/20 06:37:19;;;;;;;8.63;3.33;;;;;;;27.29;32.19;100296.44;10185504;29;20185;-78
2022/07/20 06:42:24;;;;;;;5.82;3.55;;;;;;;27.61;32.34;100292.28;10181517;29;20051;-78
2022/07/20 06:47:27;;;;;;;6.65;3.53;;;;;;;27.78;32.21;100295.19;10184740;29;20585;-78
2022/07/20 06:52:30;;;;;;;7.80;3.67;;;;;;;28.15;31.89;100294.09;10224651;29;20059;-78
2022/07/20 06:57:34;;;;;;;4.97;3.30;;;;;;;28.56;32.09;100292.22;10215394;29;20505;-78
2022/07/20 07:02:37;;;;;;;11.57;3.95;;;;;;;28.79;31.38;100303.16;10184814;28;20080;-78
2022/07/20 07:07:40;;;;;;;7.07;3.53;;;;;;;29.03;30.95;100300.28;10179442;29;20059;-77
2022/07/20 07:12:44;;;;;;;5.70;3.45;;;;;;;29.31;30.47;100297.47;10213026;29;20079;-78
2022/07/20 07:17:47;;;;;;;9.70;3.53;;;;;;;29.40;30.24;100297.88;10182598;29;20056;-78
2022/07/20 07:22:50;;;;;;;8.13;3.40;;;;;;;29.94;29.55;100302.91;10181425;29;20753;-78
2022/07/20 07:27:54;;;;;;;6.70;3.40;;;;;;;30.48;28.76;100306.69;10177745;29;20109;-79
2022/07/20 07:32:57;;;;;;;5.30;3.50;;;;;;;31.72;28.37;100297.66;10179336;29;20131;-78
2022/07/20 07:38:00;;;;;;;6.30;3.20;;;;;;;33.61;26.05;100312.16;10182706;29;20177;-78
2022/07/20 07:43:04;;;;;;;4.63;2.85;;;;;;;36.54;22.36;100311.91;10183755;29;20075;-78
2022/07/20 07:48:10;;;;;;;6.88;2.90;;;;;;;37.83;20.10;100312.41;10184047;29;21660;-78
2022/07/20 07:53:13;;;;;;;3.67;2.78;;;;;;;38.32;19.29;100318.47;10182375;29;20058;-78
2022/07/20 07:58:17;;;;;;;7.75;2.92;;;;;;;37.68;19.72;100312.69;10184750;29;20066;-78
2022/07/20 08:03:22;;;;;;;11.70;3.58;;;;;;;36.78;20.66;100321.09;10183128;29;20053;-78
2022/07/20 08:08:31;;;;;;;3.95;2.60;;;;;;;34.53;21.84;100322.25;10178912;29;20051;-78
2022/07/20 08:13:35;;;;;;;4.82;3.35;;;;;;;33.69;22.48;100306.06;10181235;29;20119;-78
2022/07/20 08:18:38;;;;;;;5.63;2.95;;;;;;;33.70;22.73;100316.06;10178366;29;20059;-78
2022/07/20 08:23:41;;;;;;;4.72;3.20;;;;;;;34.01;22.57;100307.69;10179239;29;20059;-77
2022/07/20 08:28:45;;;;;;;4.10;3.15;;;;;;;34.46;21.89;100299.44;10204406;29;20051;-77
2022/07/20 08:33:48;;;;;;;5.40;2.90;;;;;;;34.37;21.69;100305.63;10199523;29;20092;-78
2022/07/20 08:38:51;;;;;;;5.90;3.08;;;;;;;34.13;21.87;100305.44;10182492;29;20083;-78
2022/07/20 08:43:56;;;;;;;8.30;3.05;;;;;;;34.42;21.48;100297.22;10181331;29;20050;-78
2022/07/20 08:49:00;;;;;;;6.13;3.65;;;;;;;34.03;21.60;100299.84;10178175;29;20174;-78
2022/07/20 08:54:04;;;;;;;5.85;3.00;;;;;;;34.45;21.05;100320.06;10177151;29;20066;-78
2022/07/20 08:59:08;;;;;;;6.78;3.17;;;;;;;34.79;21.25;100311.84;10177819;29;20105;-77
2022/07/20 09:04:13;;;;;;;9.70;3.65;;;;;;;34.78;21.42;100307.38;10182673;29;20154;-78
2022/07/20 09:09:18;;;;;;;9.05;2.90;;;;;;;34.24;21.66;100311.81;10177616;29;20106;-77
2022/07/20 09:14:42;;;;;;;8.73;3.72;;;;;;;34.64;21.67;100316.38;10183732;29;20051;-77
2022/07/20 09:19:59;;;;;;;5.85;3.60;;;;;;;35.18;20.87;100316.63;10175377;29;20063;-77
2022/07/20 09:25:11;;;;;;;7.15;4.00;;;;;;;35.23;21.29;100311.81;10169257;29;20055;-77
2022/07/20 09:30:17;;;;;;;4.78;3.30;;;;;;;34.97;20.81;100316.75;10175452;29;20048;-77
2022/07/20 09:35:21;;;;;;;7.35;3.65;;;;;;;35.47;21.02;100314.72;10185458;29;20050;-78
2022/07/20 09:40:40;;;;;;;9.00;3.70;;;;;;;35.14;21.14;100313.56;10196473;29;20052;-78
2022/07/20 09:45:45;;;;;;;4.57;3.95;;;;;;;34.98;21.22;100310.03;10182355;29;20062;-77
2022/07/20 09:50:48;;;;;;;7.25;4.68;;;;;;;34.28;21.53;100312.88;10183496;29;20086;-77
2022/07/20 09:55:52;;;;;;;8.32;4.30;;;;;;;35.32;20.81;100319.56;10174727;29;20142;-77
2022/07/20 10:00:58;;;;;;;9.27;5.13;;;;;;;35.63;21.10;100320.16;10184137;29;20517;-78
2022/07/20 10:06:08;;;;;;;12.43;5.30;;;;;;;36.09;21.14;100311.31;10182548;29;20056;-77
2022/07/20 10:11:11;;;;;;;7.30;5.32;;;;;;;35.33;21.93;100327.66;10182049;29;20425;-77
2022/07/20 10:16:26;;;;;;;7.35;5.57;;;;;;;35.92;21.64;100315.41;10179658;29;20075;-78
2022/07/20 10:21:36;;;;;;;10.50;5.55;;;;;;;35.92;21.59;100311.78;10179885;29;20194;-78
2022/07/20 10:26:39;;;;;;;9.15;4.32;;;;;;;35.26;22.12;100314.03;10181542;29;20076;-78
2022/07/20 10:31:50;;;;;;;10.02;4.78;;;;;;;35.98;23.37;100306.97;10183048;29;20174;-77
2022/07/20 10:37:22;;;;;;;7.03;4.90;;;;;;;34.66;24.32;100318.88;10182154;29;20111;-78
2022/07/20 10:42:31;;;;;;;11.45;5.75;;;;;;;34.38;25.39;100324.00;10178488;29;20458;-77
2022/07/20 10:47:43;;;;;;;7.20;6.05;;;;;;;34.12;25.68;100322.41;10183207;29;20060;-78
2022/07/20 10:52:47;;;;;;;11.40;6.38;;;;;;;34.88;25.26;100337.16;10182661;29;20110;-78
2022/07/20 10:57:51;;;;;;;14.35;7.38;;;;;;;34.95;25.44;100349.69;10183809;29;20607;-78
2022/07/20 11:02:55;;;;;;;11.27;7.65;;;;;;;34.67;24.79;100342.00;10183530;29;20056;-79
2022/07/20 11:08:05;;;;;;;9.55;6.53;;;;;;;35.05;24.71;100338.50;10182521;29;20044;-78
2022/07/20 11:13:10;;;;;;;12.98;7.50;;;;;;;35.53;24.40;100335.06;10179100;29;20055;-79
2022/07/20 11:18:16;;;;;;;12.68;8.90;;;;;;;35.59;25.00;100324.69;10183974;29;20108;-78
2022/07/20 11:23:21;;;;;;;13.25;8.65;;;;;;;36.20;24.89;100320.41;10187949;29;20056;-79
2022/07/20 11:28:28;;;;;;;9.55;8.25;;;;;;;35.29;24.93;100319.03;10214026;29;20047;-78
2022/07/20 11:33:33;;;;;;;15.00;8.43;;;;;;;35.52;24.53;100325.84;10198508;29;20115;-79
2022/07/20 11:38:37;;;;;;;12.90;8.48;;;;;;;35.54;24.73;100321.94;10183487;29;20051;-79
2022/07/20 11:43:41;;;;;;;10.93;8.50;;;;;;;35.83;24.74;100314.38;10179642;29;20062;-79
2022/07/20 11:48:54;;;;;;;13.82;8.35;;;;;;;36.23;23.46;100312.25;10181191;29;20199;-79
2022/07/20 11:54:21;;;;;;;14.52;8.60;;;;;;;37.01;23.82;100316.56;10177806;29;20055;-78
2022/07/20 11:59:24;;;;;;;12.10;9.40;;;;;;;36.46;24.25;100307.81;10175703;29;20052;-77
2022/07/20 12:04:28;;;;;;;10.13;9.00;;;;;;;36.32;24.56;100316.06;10191049;29;20406;-78
2022/07/20 12:09:36;;;;;;;11.50;9.10;;;;;;;36.49;24.36;100311.97;10178677;29;21156;-79
2022/07/20 12:14:40;;;;;;;15.50;8.82;;;;;;;36.78;23.73;100312.69;10174590;29;20134;-79
2022/07/20 12:20:00;;;;;;;15.13;8.75;;;;;;;37.08;23.71;100298.53;10179086;29;20062;-79
2022/07/20 12:25:07;;;;;;;12.30;8.73;;;;;;;37.15;23.39;100305.41;10177490;29;20051;-79
2022/07/20 12:30:30;;;;;;;20.30;9.38;;;;;;;36.63;24.08;100307.28;10195817;29;20056;-78
2022/07/20 12:35:35;;;;;;;13.38;9.32;;;;;;;38.01;22.97;100310.63;10179437;29;20079;-79
2022/07/20 12:40:41;;;;;;;14.77;9.13;;;;;;;38.26;22.89;100308.47;10179728;29;20050;-79
2022/07/20 12:45:44;;;;;;;12.57;8.93;;;;;;;40.12;21.58;100287.63;10176014;29;20070;-78
2022/07/20 12:50:49;;;;;;;13.75;8.98;;;;;;;38.53;22.60;100300.06;10178319;29;20047;-78
2022/07/20 12:55:51;;;;;;;11.63;9.27;;;;;;;39.71;21.53;100283.13;10178605;29;20118;-79
2022/07/20 13:00:54;;;;;;;12.40;8.63;;;;;;;40.22;21.11;100278.09;10179423;29;20517;-79
2022/07/20 13:05:59;;;;;;;14.75;8.80;;;;;;;39.11;21.86;100273.19;10177018;29;20142;-78
2022/07/20 13:11:02;;;;;;;14.90;10.82;;;;;;;38.63;23.33;100270.13;10181719;28;20702;-80
2022/07/20 13:16:05;;;;;;;14.18;10.95;;;;;;;37.01;24.59;100277.38;10177183;29;20187;-79
2022/07/20 13:21:09;;;;;;;14.70;11.18;;;;;;;39.25;23.14;100275.94;10179706;29;20614;-78
2022/07/20 13:26:12;;;;;;;17.48;11.45;;;;;;;38.40;23.89;100272.00;10179711;29;20045;-81
2022/07/20 13:31:15;;;;;;;16.45;12.15;;;;;;;39.58;22.95;100270.00;10178364;29;20054;-80
2022/07/20 13:36:39;;;;;;;12.93;10.70;;;;;;;39.59;22.77;100268.88;10178089;29;20234;-79
2022/07/20 13:41:42;;;;;;;15.63;10.88;;;;;;;40.67;21.88;100266.59;10176642;29;20674;-79
2022/07/20 13:46:45;;;;;;;15.25;11.45;;;;;;;38.96;22.92;100285.63;10177909;29;20414;-80
2022/07/20 13:51:49;;;;;;;16.95;12.27;;;;;;;37.91;23.72;100278.03;10175980;29;20088;-80
2022/07/20 13:57:12;;;;;;;13.45;10.38;;;;;;;38.96;22.92;100279.19;10179257;29;20091;-81
2022/07/20 14:02:15;;;;;;;14.82;11.82;;;;;;;38.73;22.94;100279.13;10176235;29;20066;-80
2022/07/20 14:07:20;;;;;;;15.90;10.70;;;;;;;38.30;23.29;100278.69;10178860;29;20058;-79
2022/07/20 14:12:22;;;;;;;13.32;9.77;;;;;;;40.21;22.16;100265.19;10177669;29;20095;-79
2022/07/20 14:17:26;;;;;;;12.30;10.00;;;;;;;41.64;20.91;100263.34;10185045;29;20470;-79
2022/07/20 14:22:30;;;;;;;18.23;11.10;;;;;;;41.10;21.30;100262.97;10189489;29;20107;-77
2022/07/20 14:27:33;;;;;;;17.17;11.18;;;;;;;39.02;22.86;100259.06;10197420;29;20048;-77
2022/07/20 14:32:36;;;;;;;12.57;10.68;;;;;;;39.04;23.18;100252.31;10186659;29;20060;-78
2022/07/20 14:37:41;;;;;;;16.55;10.55;;;;;;;40.32;22.81;100246.84;10182335;29;20476;-78
2022/07/20 14:42:44;;;;;;;16.35;11.68;;;;;;;39.72;23.40;100248.28;10183090;29;20058;-78
2022/07/20 14:47:47;;;;;;;18.00;11.63;;;;;;;39.25;23.53;100250.66;10180438;29;20047;-78
2022/07/20 14:52:52;;;;;;;13.90;11.23;;;;;;;39.35;23.95;100244.78;10180187;29;20056;-78
2022/07/20 14:57:55;;;;;;;14.90;11.80;;;;;;;40.51;22.98;100246.50;10176687;29;20806;-78
2022/07/20 15:02:58;;;;;;;16.98;12.40;;;;;;;39.87;23.28;100245.03;10179061;29;20055;-78
2022/07/20 15:08:02;;;;;;;18.58;11.05;;;;;;;40.49;21.90;100238.41;10178616;29;20424;-78
2022/07/20 15:13:05;;;;;;;18.08;11.32;;;;;;;38.51;23.38;100242.63;10180238;29;20056;-78
2022/07/20 15:18:10;;;;;;;15.95;11.55;;;;;;;39.53;22.97;100230.84;10180912;29;20052;-78
2022/07/20 15:23:14;;;;;;;14.52;11.43;;;;;;;39.82;23.35;100228.31;10182950;29;20056;-77
2022/07/20 15:28:17;;;;;;;11.85;10.45;;;;;;;40.54;22.08;100220.56;10187774;29;20421;-78
2022/07/20 15:33:20;;;;;;;19.35;10.90;;;;;;;40.74;22.58;100224.72;10180375;29;20424;-78
2022/07/20 15:38:24;;;;;;;14.88;11.35;;;;;;;39.65;22.64;100220.63;10182077;29;20113;-78
2022/07/20 15:43:27;;;;;;;15.98;14.30;;;;;;;37.83;25.49;100224.69;10178251;29;20157;-78
2022/07/20 15:48:30;;;;;;;17.65;14.38;;;;;;;39.15;25.01;100214.41;10182030;29;20056;-79
2022/07/20 15:53:34;;;;;;;19.25;14.85;;;;;;;38.82;25.30;100211.03;10179126;29;20656;-78
2022/07/20 15:58:38;;;;;;;22.00;14.23;;;;;;;38.63;25.09;100206.41;10169346;29;20095;-78
2022/07/20 16:03:41;;;;;;;25.15;15.77;;;;;;;39.27;25.50;100199.75;10177522;29;20059;-78
2022/07/20 16:08:45;;;;;;;20.40;15.85;;;;;;;39.53;25.35;100197.13;10183605;29;20063;-78
2022/07/20 16:13:48;;;;;;;17.10;15.00;;;;;;;39.17;25.09;100190.47;10171063;29;20536;-79
2022/07/20 16:18:51;;;;;;;17.58;14.88;;;;;;;38.93;25.38;100179.59;10173079;29;20059;-79
2022/07/20 16:23:56;;;;;;;17.77;15.75;;;;;;;39.26;24.74;100182.09;10174633;29;20111;-79
2022/07/20 16:28:59;;;;;;;20.85;15.13;;;;;;;38.87;25.48;100180.84;10176450;29;20051;-79
2022/07/20 16:39:41;;;;;;;24.70;15.70;;;;;;;39.96;24.67;100174.78;10729690;23;20052;-75
2022/07/20 16:44:44;;;;;;;21.27;14.70;;;;;;;38.32;25.35;100179.06;10236355;28;20055;-76
2022/07/20 16:49:46;;;;;;;16.73;14.95;;;;;;;39.24;24.90;100178.75;10221848;29;20106;-75
2022/07/20 16:54:50;;;;;;;19.15;14.93;;;;;;;41.10;23.40;100181.28;10219271;29;20048;-80
2022/07/20 16:59:53;;;;;;;17.35;14.98;;;;;;;41.78;22.97;100179.41;10224560;29;20761;-80
2022/07/20 17:04:56;;;;;;;16.67;14.75;;;;;;;41.38;22.56;100182.53;10248597;29;20047;-80
2022/07/20 17:10:00;;;;;;;18.35;15.65;;;;;;;41.28;22.45;100184.84;10223734;29;20099;-81
2022/07/20 17:15:04;;;;;;;16.45;14.23;;;;;;;41.46;22.41;100183.66;10214827;29;20402;-80
2022/07/20 17:20:08;;;;;;;16.65;14.93;;;;;;;38.86;25.20;100198.00;10214758;29;20048;-80
2022/07/20 17:25:12;;;;;;;17.52;14.48;;;;;;;39.74;24.24;100189.72;10218634;29;20063;-81
2022/07/20 17:30:14;;;;;;;16.80;14.48;;;;;;;41.13;22.76;100187.06;10180696;28;20099;-81
2022/07/20 17:35:17;;;;;;;18.48;14.65;;;;;;;41.69;22.39;100197.47;10180068;29;21269;-80
2022/07/20 17:40:21;;;;;;;15.65;14.05;;;;;;;41.04;22.96;100200.34;10178276;28;20462;-80
2022/07/20 17:45:25;;;;;;;17.77;13.75;;;;;;;40.63;23.31;100209.31;10185696;29;20143;-80
2022/07/20 17:50:27;;;;;;;20.05;14.02;;;;;;;40.29;23.74;100206.13;10210418;29;20055;-81
2022/07/20 17:55:32;;;;;;;15.98;13.60;;;;;;;36.52;27.22;100214.31;10193620;29;20051;-81
2022/07/20 18:00:35;;;;;;;16.65;14.00;;;;;;;35.01;29.43;100214.59;10195962;29;20066;-80
2022/07/20 18:05:41;;;;;;;18.00;14.00;;;;;;;34.06;29.98;100220.44;10188501;29;20048;-77
2022/07/20 18:10:46;;;;;;;17.63;14.60;;;;;;;32.78;31.53;100224.22;10185889;29;20056;-78
2022/07/20 18:15:48;;;;;;;14.45;12.38;;;;;;;32.82;31.69;100218.94;10184299;29;20677;-78
2022/07/20 18:20:51;;;;;;;18.05;12.65;;;;;;;32.34;32.11;100208.00;10186511;29;21206;-78
2022/07/20 18:25:55;;;;;;;17.05;12.77;;;;;;;32.07;32.56;100208.16;10182358;29;20062;-78
2022/07/20 18:30:58;;;;;;;14.98;11.82;;;;;;;31.74;32.94;100206.63;10185794;28;20107;-78
2022/07/20 18:36:02;;;;;;;15.43;11.98;;;;;;;31.58;33.11;100206.50;10185371;28;20059;-77
2022/07/20 18:41:06;;;;;;;16.38;11.45;;;;;;;31.48;33.95;100213.91;10184467;29;20131;-77
2022/07/20 18:46:09;;;;;;;15.55;12.45;;;;;;;31.38;34.06;100209.16;10183279;29;20065;-77
2022/07/20 18:51:14;;;;;;;13.30;11.43;;;;;;;31.40;34.57;100212.47;10183169;29;20064;-78
2022/07/20 18:56:19;;;;;;;13.50;10.93;;;;;;;31.21;34.08;100214.88;10207168;29;20051;-78
2022/07/20 19:01:22;;;;;;;15.75;11.30;;;;;;;31.05;34.48;100232.47;10187043;29;20142;-78
2022/07/20 19:06:25;;;;;;;16.38;12.25;;;;;;;30.92;34.69;100230.94;10178453;29;20052;-78
2022/07/20 19:11:29;;;;;;;17.50;12.52;;;;;;;30.91;34.89;100227.34;10179482;29;20051;-78
2022/07/20 19:16:32;;;;;;;16.02;12.02;;;;;;;30.82;34.86;100231.69;10179764;29;20055;-77
2022/07/20 19:21:35;;;;;;;15.65;13.05;;;;;;;30.63;35.70;100241.44;10170887;29;20056;-78
2022/07/20 19:26:39;;;;;;;16.10;12.80;;;;;;;30.46;35.73;100236.81;10177018;29;20059;-76
2022/07/20 19:31:42;;;;;;;17.00;12.98;;;;;;;30.08;36.43;100234.13;10177402;29;20212;-77
2022/07/20 19:36:46;;;;;;;19.90;12.40;;;;;;;30.06;36.48;100244.63;10174546;29;20059;-77
2022/07/20 19:41:50;;;;;;;20.23;12.32;;;;;;;29.91;36.62;100248.88;10173897;29;20218;-77
2022/07/20 19:46:53;;;;;;;13.18;11.27;;;;;;;29.54;37.63;100267.97;10175200;29;20050;-78
2022/07/20 19:51:55;;;;;;;18.13;11.07;;;;;;;29.29;37.58;100262.84;10177513;29;20065;-78
2022/07/20 19:57:00;;;;;;;14.30;10.63;;;;;;;28.40;39.00;100267.00;10172135;28;20051;-78
2022/07/20 20:02:03;;;;;;;12.60;10.18;;;;;;;28.69;38.53;100287.22;10170986;28;20111;-77
2022/07/20 20:07:05;;;;;;;12.50;9.85;;;;;;;27.90;39.63;100295.19;10175124;28;20047;-76
2022/07/20 20:12:10;;;;;;;13.52;9.32;;;;;;;27.72;40.32;100320.13;10172806;29;20056;-78
2022/07/20 20:17:12;;;;;;;16.08;9.90;;;;;;;28.33;39.11;100346.41;10163358;28;20127;-78
2022/07/20 20:22:15;;;;;;;15.10;10.18;;;;;;;28.42;39.35;100357.91;10165866;28;20059;-77
2022/07/20 20:27:20;;;;;;;17.75;10.40;;;;;;;28.53;39.07;100334.97;10169088;28;20163;-77
2022/07/20 20:32:23;;;;;;;11.85;9.43;;;;;;;28.69;38.86;100334.19;10170816;28;20134;-77
2022/07/20 20:37:25;;;;;;;14.93;9.88;;;;;;;28.69;39.38;100331.44;10168561;28;20091;-78
2022/07/20 20:42:30;;;;;;;14.38;9.43;;;;;;;28.66;39.18;100320.03;10163458;28;20048;-77
2022/07/20 20:47:33;;;;;;;10.80;9.68;;;;;;;28.54;39.24;100330.28;10164913;29;20141;-77
2022/07/20 20:52:36;;;;;;;13.75;8.95;;;;;;;28.50;39.52;100329.91;10163107;29;20453;-78
2022/07/20 20:57:42;;;;;;;14.25;9.15;;;;;;;28.42;39.68;100349.63;10173805;29;20056;-77
2022/07/20 21:02:47;;;;;;;11.25;10.00;;;;;;;28.28;39.69;100352.66;10176887;29;20059;-76
2022/07/20 21:07:50;;;;;;;11.82;8.73;;;;;;;28.39;39.38;100341.84;10174717;29;20070;-77
2022/07/20 21:12:55;;;;;;;17.48;9.77;;;;;;;28.21;39.45;100343.66;10173682;29;20582;-77
2022/07/20 21:17:58;;;;;;;12.18;8.70;;;;;;;27.61;40.41;100350.22;10174647;29;20044;-77
2022/07/20 21:23:01;;;;;;;10.23;8.68;;;;;;;27.68;40.49;100355.66;10174454;29;20047;-77
2022/07/20 21:28:08;;;;;;;11.65;9.13;;;;;;;27.11;41.73;100352.50;10174189;29;20521;-78
2022/07/20 21:33:11;;;;;;;15.75;9.15;;;;;;;26.97;42.17;100351.84;10181235;29;20060;-78
2022/07/20 21:38:14;;;;;;;10.85;9.25;;;;;;;26.97;42.25;100353.78;10175549;29;20055;-77
2022/07/20 21:43:19;;;;;;;12.70;9.20;;;;;;;27.12;41.70;100357.75;10174498;29;20047;-77
2022/07/20 21:48:30;;;;;;;13.05;9.38;;;;;;;27.51;41.65;100357.41;10173684;29;20044;-77
2022/07/20 21:53:33;;;;;;;12.55;9.73;;;;;;;27.45;41.17;100364.72;10170006;29;20048;-77
2022/07/20 21:58:37;;;;;;;11.45;9.70;;;;;;;27.12;41.67;100384.50;10173374;29;20054;-77
2022/07/20 22:03:40;;;;;;;13.45;9.40;;;;;;;27.03;42.34;100378.47;10173681;29;20417;-77
2022/07/20 22:08:43;;;;;;;11.88;9.65;;;;;;;26.96;42.38;100405.31;10172208;29;20052;-77
2022/07/20 22:13:48;;;;;;;11.50;9.82;;;;;;;27.17;42.04;100403.94;10172677;29;20051;-77
2022/07/20 22:18:51;;;;;;;13.50;9.70;;;;;;;26.89;42.47;100399.03;10173546;29;20134;-76
2022/07/20 22:23:55;;;;;;;16.98;10.98;;;;;;;26.66;43.16;100408.81;10172681;29;20502;-77
2022/07/20 22:28:59;;;;;;;11.45;10.25;;;;;;;26.77;42.98;100443.03;10170622;29;20058;-76
2022/07/20 22:34:02;;;;;;;12.20;9.23;;;;;;;26.26;43.65;100458.81;10169913;29;20051;-76
2022/07/20 22:39:05;;;;;;;15.13;9.40;;;;;;;26.05;44.66;100448.16;10178229;29;20123;-77
2022/07/20 22:44:09;;;;;;;13.45;9.02;;;;;;;25.80;45.73;100464.69;10178502;29;20086;-76
2022/07/20 22:49:13;;;;;;;14.43;8.55;;;;;;;25.72;46.26;100511.72;10177393;29;20083;-76
2022/07/20 22:54:16;;;;;;;13.73;7.68;;;;;;;25.21;49.40;100637.13;10178438;29;20051;-76
2022/07/20 22:59:20;;;;;;;25.30;9.43;;;;;;;19.76;80.68;100792.78;10177700;29;20056;-79
2022/07/20 23:04:23;;;;;;;18.45;6.68;;;;;;;17.52;94.36;100822.47;10184329;29;20048;-78
2022/07/20 23:09:26;;;;;;;13.43;6.32;;;;;;;17.21;95.93;100723.34;10185903;29;20052;-78